sensor_id;sensor_type;location;lat;lon;timestamp;P1;durP1;ratioP1;P2;durP2;ratioP2
17650;SDS011;26663;59.302;18.082;2023-02-01T00:00:46;2.27;;;2.10;;
17650;SDS011;26663;59.302;18.082;2023-02-01T00:03:51;2.53;;;2.40;;
17650;SDS011;26663;59.302;18.082;2023-02-01T00:06:58;9.20;;;2.30;;
17650;SDS011;26663;59.302;18.082;2023-02-01T00:10:06;6.53;;;2.77;;
17650;SDS011;26663;59.302;18.082;2023-02-01T00:13:12;6.70;;;2.93;;
17650;SDS011;26663;59.302;18.082;2023-02-01T00:16:20;3.30;;;3.00;;
17650;SDS011;26663;59.302;18.082;2023-02-01T00:19:26;6.27;;;3.10;;
17650;SDS011;26663;59.302;18.082;2023-02-01T00:22:31;6.27;;;3.13;;
17650;SDS011;26663;59.302;18.082;2023-02-01T00:25:38;13.87;;;3.30;;
17650;SDS011;26663;59.302;18.082;2023-02-01T00:28:44;3.53;;;3.23;;
17650;SDS011;26663;59.302;18.082;2023-02-01T00:31:52;3.43;;;3.00;;
17650;SDS011;26663;59.302;18.082;2023-02-01T00:34:58;8.10;;;3.07;;
17650;SDS011;26663;59.302;18.082;2023-02-01T00:38:03;9.03;;;3.10;;
17650;SDS011;26663;59.302;18.082;2023-02-01T00:41:11;8.60;;;3.10;;
17650;SDS011;26663;59.302;18.082;2023-02-01T00:44:21;9.67;;;3.43;;
17650;SDS011;26663;59.302;18.082;2023-02-01T00:47:29;5.23;;;3.00;;
17650;SDS011;26663;59.302;18.082;2023-02-01T00:50:34;9.53;;;3.10;;
17650;SDS011;26663;59.302;18.082;2023-02-01T00:53:45;5.57;;;2.67;;
17650;SDS011;26663;59.302;18.082;2023-02-01T00:56:51;7.57;;;3.23;;
17650;SDS011;26663;59.302;18.082;2023-02-01T00:59:58;4.20;;;2.90;;
17650;SDS011;26663;59.302;18.082;2023-02-01T01:03:04;7.60;;;3.33;;
17650;SDS011;26663;59.302;18.082;2023-02-01T01:06:20;7.57;;;3.63;;
17650;SDS011;26663;59.302;18.082;2023-02-01T01:09:28;5.83;;;2.90;;
17650;SDS011;26663;59.302;18.082;2023-02-01T01:12:35;3.73;;;2.63;;
17650;SDS011;26663;59.302;18.082;2023-02-01T01:15:41;13.50;;;3.20;;
17650;SDS011;26663;59.302;18.082;2023-02-01T01:18:47;5.00;;;3.07;;
17650;SDS011;26663;59.302;18.082;2023-02-01T01:21:52;8.30;;;3.23;;
17650;SDS011;26663;59.302;18.082;2023-02-01T01:24:59;8.70;;;3.40;;
17650;SDS011;26663;59.302;18.082;2023-02-01T01:28:08;4.40;;;3.40;;
17650;SDS011;26663;59.302;18.082;2023-02-01T01:31:15;3.43;;;3.00;;
17650;SDS011;26663;59.302;18.082;2023-02-01T01:34:24;9.80;;;3.10;;
17650;SDS011;26663;59.302;18.082;2023-02-01T01:37:29;3.90;;;3.50;;
17650;SDS011;26663;59.302;18.082;2023-02-01T01:40:34;5.80;;;3.40;;
17650;SDS011;26663;59.302;18.082;2023-02-01T01:43:55;5.27;;;3.43;;
17650;SDS011;26663;59.302;18.082;2023-02-01T01:47:05;8.93;;;3.40;;
17650;SDS011;26663;59.302;18.082;2023-02-01T01:50:12;6.60;;;3.50;;
17650;SDS011;26663;59.302;18.082;2023-02-01T01:53:20;4.70;;;3.60;;
17650;SDS011;26663;59.302;18.082;2023-02-01T01:56:27;7.87;;;3.23;;
17650;SDS011;26663;59.302;18.082;2023-02-01T01:59:35;6.17;;;3.37;;
17650;SDS011;26663;59.302;18.082;2023-02-01T02:06:12;7.07;;;3.17;;
17650;SDS011;26663;59.302;18.082;2023-02-01T02:09:21;7.30;;;3.90;;
17650;SDS011;26663;59.302;18.082;2023-02-01T02:12:26;9.07;;;3.30;;
17650;SDS011;26663;59.302;18.082;2023-02-01T02:15:33;8.93;;;3.73;;
17650;SDS011;26663;59.302;18.082;2023-02-01T02:18:40;6.83;;;3.47;;
17650;SDS011;26663;59.302;18.082;2023-02-01T02:21:56;9.77;;;3.50;;
17650;SDS011;26663;59.302;18.082;2023-02-01T02:29:07;5.60;;;3.37;;
17650;SDS011;26663;59.302;18.082;2023-02-01T02:32:51;6.40;;;2.83;;
17650;SDS011;26663;59.302;18.082;2023-02-01T02:36:28;12.37;;;3.70;;
17650;SDS011;26663;59.302;18.082;2023-02-01T02:39:40;4.17;;;3.30;;
17650;SDS011;26663;59.302;18.082;2023-02-01T02:42:50;5.07;;;3.50;;
17650;SDS011;26663;59.302;18.082;2023-02-01T02:46:19;10.10;;;3.73;;
17650;SDS011;26663;59.302;18.082;2023-02-01T02:49:46;7.47;;;3.83;;
17650;SDS011;26663;59.302;18.082;2023-02-01T02:53:16;4.33;;;3.10;;
17650;SDS011;26663;59.302;18.082;2023-02-01T02:56:41;7.83;;;3.60;;
17650;SDS011;26663;59.302;18.082;2023-02-01T03:00:04;7.60;;;3.80;;
17650;SDS011;26663;59.302;18.082;2023-02-01T03:03:29;7.73;;;3.43;;
17650;SDS011;26663;59.302;18.082;2023-02-01T03:06:53;5.43;;;3.57;;
17650;SDS011;26663;59.302;18.082;2023-02-01T03:09:59;9.47;;;3.77;;
17650;SDS011;26663;59.302;18.082;2023-02-01T03:13:11;10.63;;;3.43;;
17650;SDS011;26663;59.302;18.082;2023-02-01T03:16:20;4.27;;;3.50;;
17650;SDS011;26663;59.302;18.082;2023-02-01T03:19:31;7.27;;;4.27;;
17650;SDS011;26663;59.302;18.082;2023-02-01T03:22:37;3.20;;;3.00;;
17650;SDS011;26663;59.302;18.082;2023-02-01T03:25:45;5.27;;;3.70;;
17650;SDS011;26663;59.302;18.082;2023-02-01T03:28:54;7.27;;;3.70;;
17650;SDS011;26663;59.302;18.082;2023-02-01T03:32:01;8.73;;;3.80;;
17650;SDS011;26663;59.302;18.082;2023-02-01T03:35:08;6.37;;;4.10;;
17650;SDS011;26663;59.302;18.082;2023-02-01T03:38:16;13.23;;;4.00;;
17650;SDS011;26663;59.302;18.082;2023-02-01T03:41:29;8.13;;;4.07;;
17650;SDS011;26663;59.302;18.082;2023-02-01T03:44:39;10.00;;;3.97;;
17650;SDS011;26663;59.302;18.082;2023-02-01T03:47:48;4.57;;;3.80;;
17650;SDS011;26663;59.302;18.082;2023-02-01T03:50:56;5.87;;;3.77;;
17650;SDS011;26663;59.302;18.082;2023-02-01T03:54:03;6.47;;;3.63;;
17650;SDS011;26663;59.302;18.082;2023-02-01T03:57:12;7.77;;;3.50;;
17650;SDS011;26663;59.302;18.082;2023-02-01T04:00:20;17.03;;;3.90;;
17650;SDS011;26663;59.302;18.082;2023-02-01T04:03:27;6.67;;;3.50;;
17650;SDS011;26663;59.302;18.082;2023-02-01T04:06:35;7.63;;;3.27;;
17650;SDS011;26663;59.302;18.082;2023-02-01T04:09:40;5.53;;;3.20;;
17650;SDS011;26663;59.302;18.082;2023-02-01T04:12:47;4.47;;;3.67;;
17650;SDS011;26663;59.302;18.082;2023-02-01T04:15:53;9.33;;;3.70;;
17650;SDS011;26663;59.302;18.082;2023-02-01T04:18:58;5.67;;;3.80;;
17650;SDS011;26663;59.302;18.082;2023-02-01T04:22:03;6.33;;;3.73;;
17650;SDS011;26663;59.302;18.082;2023-02-01T04:25:09;5.33;;;3.77;;
17650;SDS011;26663;59.302;18.082;2023-02-01T04:28:15;6.20;;;3.33;;
17650;SDS011;26663;59.302;18.082;2023-02-01T04:31:21;5.57;;;3.40;;
17650;SDS011;26663;59.302;18.082;2023-02-01T04:34:28;10.63;;;3.33;;
17650;SDS011;26663;59.302;18.082;2023-02-01T04:37:33;5.43;;;3.17;;
17650;SDS011;26663;59.302;18.082;2023-02-01T04:40:39;6.40;;;3.40;;
17650;SDS011;26663;59.302;18.082;2023-02-01T04:43:50;6.73;;;3.60;;
17650;SDS011;26663;59.302;18.082;2023-02-01T04:46:56;5.27;;;3.17;;
17650;SDS011;26663;59.302;18.082;2023-02-01T04:50:01;7.37;;;3.50;;
17650;SDS011;26663;59.302;18.082;2023-02-01T04:53:09;9.43;;;3.63;;
17650;SDS011;26663;59.302;18.082;2023-02-01T04:56:14;9.63;;;3.20;;
17650;SDS011;26663;59.302;18.082;2023-02-01T04:59:21;11.53;;;3.50;;
17650;SDS011;26663;59.302;18.082;2023-02-01T05:02:27;5.17;;;3.07;;
17650;SDS011;26663;59.302;18.082;2023-02-01T05:05:34;5.83;;;3.33;;
17650;SDS011;26663;59.302;18.082;2023-02-01T05:08:40;11.90;;;3.63;;
17650;SDS011;26663;59.302;18.082;2023-02-01T05:11:45;8.50;;;3.73;;
17650;SDS011;26663;59.302;18.082;2023-02-01T05:15:11;5.23;;;3.60;;
17650;SDS011;26663;59.302;18.082;2023-02-01T05:18:17;13.07;;;3.57;;
17650;SDS011;26663;59.302;18.082;2023-02-01T05:21:22;5.03;;;3.33;;
17650;SDS011;26663;59.302;18.082;2023-02-01T05:24:27;7.20;;;3.13;;
17650;SDS011;26663;59.302;18.082;2023-02-01T05:27:32;4.53;;;3.23;;
17650;SDS011;26663;59.302;18.082;2023-02-01T05:30:39;10.63;;;4.07;;
17650;SDS011;26663;59.302;18.082;2023-02-01T05:33:44;3.87;;;3.03;;
17650;SDS011;26663;59.302;18.082;2023-02-01T05:36:50;10.00;;;3.43;;
17650;SDS011;26663;59.302;18.082;2023-02-01T05:39:55;5.07;;;3.00;;
17650;SDS011;26663;59.302;18.082;2023-02-01T05:43:00;5.60;;;3.13;;
17650;SDS011;26663;59.302;18.082;2023-02-01T05:46:07;8.67;;;3.87;;
17650;SDS011;26663;59.302;18.082;2023-02-01T05:49:13;8.13;;;3.57;;
17650;SDS011;26663;59.302;18.082;2023-02-01T05:52:18;7.07;;;3.83;;
17650;SDS011;26663;59.302;18.082;2023-02-01T05:55:23;5.87;;;3.60;;
17650;SDS011;26663;59.302;18.082;2023-02-01T05:58:28;4.60;;;2.77;;
17650;SDS011;26663;59.302;18.082;2023-02-01T06:01:35;8.70;;;3.60;;
17650;SDS011;26663;59.302;18.082;2023-02-01T06:04:40;10.50;;;3.60;;
17650;SDS011;26663;59.302;18.082;2023-02-01T06:07:46;11.97;;;3.70;;
17650;SDS011;26663;59.302;18.082;2023-02-01T06:10:58;8.17;;;3.70;;
17650;SDS011;26663;59.302;18.082;2023-02-01T06:14:04;7.90;;;3.60;;
17650;SDS011;26663;59.302;18.082;2023-02-01T06:17:12;6.77;;;3.20;;
17650;SDS011;26663;59.302;18.082;2023-02-01T06:20:17;12.33;;;3.47;;
17650;SDS011;26663;59.302;18.082;2023-02-01T06:23:23;7.33;;;3.03;;
17650;SDS011;26663;59.302;18.082;2023-02-01T06:26:28;4.77;;;3.03;;
17650;SDS011;26663;59.302;18.082;2023-02-01T06:29:33;5.97;;;3.10;;
17650;SDS011;26663;59.302;18.082;2023-02-01T06:32:40;8.33;;;3.13;;
17650;SDS011;26663;59.302;18.082;2023-02-01T06:35:46;12.47;;;3.33;;
17650;SDS011;26663;59.302;18.082;2023-02-01T06:38:51;9.83;;;3.63;;
17650;SDS011;26663;59.302;18.082;2023-02-01T06:41:56;12.27;;;3.40;;
17650;SDS011;26663;59.302;18.082;2023-02-01T06:45:02;7.63;;;3.03;;
17650;SDS011;26663;59.302;18.082;2023-02-01T06:48:13;7.20;;;3.20;;
17650;SDS011;26663;59.302;18.082;2023-02-01T06:51:18;10.10;;;3.07;;
17650;SDS011;26663;59.302;18.082;2023-02-01T06:54:25;4.10;;;2.50;;
17650;SDS011;26663;59.302;18.082;2023-02-01T06:57:30;8.50;;;3.07;;
17650;SDS011;26663;59.302;18.082;2023-02-01T07:00:36;5.93;;;2.77;;
17650;SDS011;26663;59.302;18.082;2023-02-01T07:03:46;9.90;;;2.67;;
17650;SDS011;26663;59.302;18.082;2023-02-01T07:06:53;6.30;;;2.70;;
17650;SDS011;26663;59.302;18.082;2023-02-01T07:09:58;5.57;;;2.87;;
17650;SDS011;26663;59.302;18.082;2023-02-01T07:13:04;2.60;;;2.40;;
17650;SDS011;26663;59.302;18.082;2023-02-01T07:16:11;5.83;;;2.60;;
17650;SDS011;26663;59.302;18.082;2023-02-01T07:19:19;8.73;;;2.37;;
17650;SDS011;26663;59.302;18.082;2023-02-01T07:22:25;6.10;;;2.63;;
17650;SDS011;26663;59.302;18.082;2023-02-01T07:25:29;9.63;;;2.90;;
17650;SDS011;26663;59.302;18.082;2023-02-01T07:28:35;8.57;;;3.43;;
17650;SDS011;26663;59.302;18.082;2023-02-01T07:31:40;10.67;;;3.00;;
17650;SDS011;26663;59.302;18.082;2023-02-01T07:34:48;5.90;;;3.10;;
17650;SDS011;26663;59.302;18.082;2023-02-01T07:37:56;3.30;;;2.97;;
17650;SDS011;26663;59.302;18.082;2023-02-01T07:41:03;7.60;;;3.43;;
17650;SDS011;26663;59.302;18.082;2023-02-01T07:44:10;9.03;;;3.40;;
17650;SDS011;26663;59.302;18.082;2023-02-01T07:47:15;7.00;;;3.00;;
17650;SDS011;26663;59.302;18.082;2023-02-01T07:50:22;7.13;;;2.90;;
17650;SDS011;26663;59.302;18.082;2023-02-01T07:53:29;4.47;;;2.73;;
17650;SDS011;26663;59.302;18.082;2023-02-01T07:56:35;5.23;;;2.80;;
17650;SDS011;26663;59.302;18.082;2023-02-01T07:59:41;5.40;;;2.50;;
17650;SDS011;26663;59.302;18.082;2023-02-01T08:03:00;5.27;;;2.50;;
17650;SDS011;26663;59.302;18.082;2023-02-01T08:06:06;7.30;;;2.63;;
17650;SDS011;26663;59.302;18.082;2023-02-01T08:09:12;5.90;;;2.60;;
17650;SDS011;26663;59.302;18.082;2023-02-01T08:12:17;2.77;;;2.53;;
17650;SDS011;26663;59.302;18.082;2023-02-01T08:15:22;9.30;;;2.67;;
17650;SDS011;26663;59.302;18.082;2023-02-01T08:18:28;7.83;;;2.50;;
17650;SDS011;26663;59.302;18.082;2023-02-01T08:21:36;6.20;;;2.53;;
17650;SDS011;26663;59.302;18.082;2023-02-01T08:24:41;4.50;;;2.70;;
17650;SDS011;26663;59.302;18.082;2023-02-01T08:27:47;5.67;;;2.40;;
17650;SDS011;26663;59.302;18.082;2023-02-01T08:30:52;3.57;;;2.33;;
17650;SDS011;26663;59.302;18.082;2023-02-01T08:33:59;7.67;;;2.70;;
17650;SDS011;26663;59.302;18.082;2023-02-01T08:37:09;5.20;;;2.30;;
17650;SDS011;26663;59.302;18.082;2023-02-01T08:40:18;3.77;;;2.10;;
17650;SDS011;26663;59.302;18.082;2023-02-01T08:43:24;4.47;;;2.20;;
17650;SDS011;26663;59.302;18.082;2023-02-01T08:46:29;6.43;;;2.30;;
17650;SDS011;26663;59.302;18.082;2023-02-01T08:49:35;2.27;;;1.87;;
17650;SDS011;26663;59.302;18.082;2023-02-01T08:52:42;3.37;;;1.97;;
17650;SDS011;26663;59.302;18.082;2023-02-01T08:55:47;5.80;;;2.37;;
17650;SDS011;26663;59.302;18.082;2023-02-01T08:58:52;3.13;;;2.00;;
17650;SDS011;26663;59.302;18.082;2023-02-01T09:01:57;5.30;;;2.30;;
17650;SDS011;26663;59.302;18.082;2023-02-01T09:05:03;9.37;;;2.40;;
17650;SDS011;26663;59.302;18.082;2023-02-01T09:08:13;4.63;;;2.30;;
17650;SDS011;26663;59.302;18.082;2023-02-01T09:11:19;6.50;;;1.90;;
17650;SDS011;26663;59.302;18.082;2023-02-01T09:14:24;5.70;;;1.90;;
17650;SDS011;26663;59.302;18.082;2023-02-01T09:17:29;4.30;;;2.43;;
17650;SDS011;26663;59.302;18.082;2023-02-01T09:20:36;12.00;;;2.77;;
17650;SDS011;26663;59.302;18.082;2023-02-01T09:23:43;7.60;;;3.50;;
17650;SDS011;26663;59.302;18.082;2023-02-01T09:26:50;6.30;;;4.10;;
17650;SDS011;26663;59.302;18.082;2023-02-01T09:29:56;3.40;;;2.43;;
17650;SDS011;26663;59.302;18.082;2023-02-01T09:33:01;2.97;;;2.77;;
17650;SDS011;26663;59.302;18.082;2023-02-01T09:36:08;6.00;;;3.60;;
17650;SDS011;26663;59.302;18.082;2023-02-01T09:39:14;3.30;;;3.00;;
17650;SDS011;26663;59.302;18.082;2023-02-01T09:45:50;3.63;;;2.30;;
17650;SDS011;26663;59.302;18.082;2023-02-01T09:49:00;5.50;;;1.77;;
17650;SDS011;26663;59.302;18.082;2023-02-01T09:52:07;2.13;;;1.80;;
17650;SDS011;26663;59.302;18.082;2023-02-01T09:55:18;5.17;;;2.80;;
17650;SDS011;26663;59.302;18.082;2023-02-01T09:58:36;5.40;;;2.40;;
17650;SDS011;26663;59.302;18.082;2023-02-01T10:01:43;5.57;;;3.23;;
17650;SDS011;26663;59.302;18.082;2023-02-01T10:04:48;7.83;;;2.33;;
17650;SDS011;26663;59.302;18.082;2023-02-01T10:07:56;6.53;;;2.37;;
17650;SDS011;26663;59.302;18.082;2023-02-01T10:11:09;4.77;;;2.50;;
17650;SDS011;26663;59.302;18.082;2023-02-01T10:14:32;8.17;;;2.67;;
17650;SDS011;26663;59.302;18.082;2023-02-01T10:17:50;3.23;;;2.80;;
17650;SDS011;26663;59.302;18.082;2023-02-01T10:21:09;4.33;;;2.70;;
17650;SDS011;26663;59.302;18.082;2023-02-01T10:24:21;3.00;;;2.70;;
17650;SDS011;26663;59.302;18.082;2023-02-01T10:27:49;3.27;;;2.43;;
17650;SDS011;26663;59.302;18.082;2023-02-01T10:30:56;8.03;;;2.13;;
17650;SDS011;26663;59.302;18.082;2023-02-01T10:34:06;6.07;;;2.97;;
17650;SDS011;26663;59.302;18.082;2023-02-01T10:37:22;2.57;;;2.37;;
17650;SDS011;26663;59.302;18.082;2023-02-01T10:40:30;7.10;;;2.77;;
17650;SDS011;26663;59.302;18.082;2023-02-01T10:43:37;3.40;;;2.30;;
17650;SDS011;26663;59.302;18.082;2023-02-01T10:46:43;6.07;;;2.80;;
17650;SDS011;26663;59.302;18.082;2023-02-01T10:49:50;4.47;;;2.47;;
17650;SDS011;26663;59.302;18.082;2023-02-01T10:53:01;7.63;;;2.60;;
17650;SDS011;26663;59.302;18.082;2023-02-01T10:56:10;6.40;;;3.23;;
17650;SDS011;26663;59.302;18.082;2023-02-01T10:59:18;11.50;;;4.00;;
17650;SDS011;26663;59.302;18.082;2023-02-01T11:02:25;6.40;;;3.53;;
17650;SDS011;26663;59.302;18.082;2023-02-01T11:05:42;5.60;;;3.53;;
17650;SDS011;26663;59.302;18.082;2023-02-01T11:08:49;5.97;;;3.53;;
17650;SDS011;26663;59.302;18.082;2023-02-01T11:11:56;5.47;;;3.67;;
17650;SDS011;26663;59.302;18.082;2023-02-01T11:15:12;11.67;;;4.00;;
17650;SDS011;26663;59.302;18.082;2023-02-01T11:18:19;7.83;;;3.20;;
17650;SDS011;26663;59.302;18.082;2023-02-01T11:21:29;11.30;;;4.30;;
17650;SDS011;26663;59.302;18.082;2023-02-01T11:24:35;5.77;;;3.53;;
17650;SDS011;26663;59.302;18.082;2023-02-01T11:27:41;6.17;;;3.97;;
17650;SDS011;26663;59.302;18.082;2023-02-01T11:30:58;4.40;;;4.10;;
17650;SDS011;26663;59.302;18.082;2023-02-01T11:34:06;5.10;;;4.03;;
17650;SDS011;26663;59.302;18.082;2023-02-01T11:37:14;10.27;;;3.80;;
17650;SDS011;26663;59.302;18.082;2023-02-01T11:40:25;3.83;;;3.53;;
17650;SDS011;26663;59.302;18.082;2023-02-01T11:43:32;9.10;;;4.17;;
17650;SDS011;26663;59.302;18.082;2023-02-01T11:46:39;8.93;;;4.00;;
17650;SDS011;26663;59.302;18.082;2023-02-01T11:49:45;5.07;;;3.90;;
17650;SDS011;26663;59.302;18.082;2023-02-01T11:52:54;4.50;;;3.70;;
17650;SDS011;26663;59.302;18.082;2023-02-01T11:56:12;6.37;;;3.50;;
17650;SDS011;26663;59.302;18.082;2023-02-01T11:59:25;4.07;;;3.67;;
17650;SDS011;26663;59.302;18.082;2023-02-01T12:02:51;6.10;;;3.90;;
17650;SDS011;26663;59.302;18.082;2023-02-01T12:06:05;5.13;;;3.60;;
17650;SDS011;26663;59.302;18.082;2023-02-01T12:09:17;5.60;;;3.10;;
17650;SDS011;26663;59.302;18.082;2023-02-01T12:12:32;3.93;;;3.57;;
17650;SDS011;26663;59.302;18.082;2023-02-01T12:15:46;5.97;;;3.87;;
17650;SDS011;26663;59.302;18.082;2023-02-01T12:19:13;3.40;;;3.20;;
17650;SDS011;26663;59.302;18.082;2023-02-01T12:22:30;3.33;;;2.97;;
17650;SDS011;26663;59.302;18.082;2023-02-01T12:25:51;3.73;;;3.30;;
17650;SDS011;26663;59.302;18.082;2023-02-01T12:29:24;3.47;;;3.10;;
17650;SDS011;26663;59.302;18.082;2023-02-01T12:32:51;6.10;;;3.57;;
17650;SDS011;26663;59.302;18.082;2023-02-01T12:36:09;4.17;;;3.57;;
17650;SDS011;26663;59.302;18.082;2023-02-01T12:39:21;2.97;;;2.80;;
17650;SDS011;26663;59.302;18.082;2023-02-01T12:42:29;3.57;;;3.07;;
17650;SDS011;26663;59.302;18.082;2023-02-01T12:45:38;8.50;;;3.40;;
17650;SDS011;26663;59.302;18.082;2023-02-01T12:48:48;4.27;;;3.23;;
17650;SDS011;26663;59.302;18.082;2023-02-01T12:52:00;4.80;;;3.00;;
17650;SDS011;26663;59.302;18.082;2023-02-01T12:55:13;3.57;;;3.30;;
17650;SDS011;26663;59.302;18.082;2023-02-01T12:58:22;4.43;;;3.40;;
17650;SDS011;26663;59.302;18.082;2023-02-01T13:01:36;4.50;;;3.80;;
17650;SDS011;26663;59.302;18.082;2023-02-01T13:04:47;4.57;;;4.10;;
17650;SDS011;26663;59.302;18.082;2023-02-01T13:07:59;4.03;;;3.70;;
17650;SDS011;26663;59.302;18.082;2023-02-01T13:11:07;6.10;;;3.40;;
17650;SDS011;26663;59.302;18.082;2023-02-01T13:14:20;3.03;;;2.83;;
17650;SDS011;26663;59.302;18.082;2023-02-01T13:17:32;3.40;;;3.10;;
17650;SDS011;26663;59.302;18.082;2023-02-01T13:20:40;2.87;;;2.60;;
17650;SDS011;26663;59.302;18.082;2023-02-01T13:23:52;3.90;;;3.37;;
17650;SDS011;26663;59.302;18.082;2023-02-01T13:26:58;3.67;;;3.40;;
17650;SDS011;26663;59.302;18.082;2023-02-01T13:30:04;4.27;;;2.27;;
17650;SDS011;26663;59.302;18.082;2023-02-01T13:33:28;4.23;;;2.20;;
17650;SDS011;26663;59.302;18.082;2023-02-01T13:37:01;2.20;;;2.00;;
17650;SDS011;26663;59.302;18.082;2023-02-01T13:40:25;2.50;;;1.77;;
17650;SDS011;26663;59.302;18.082;2023-02-01T13:43:39;2.57;;;1.87;;
17650;SDS011;26663;59.302;18.082;2023-02-01T13:46:52;2.00;;;1.90;;
17650;SDS011;26663;59.302;18.082;2023-02-01T13:50:01;2.47;;;2.27;;
17650;SDS011;26663;59.302;18.082;2023-02-01T13:53:17;1.57;;;1.57;;
17650;SDS011;26663;59.302;18.082;2023-02-01T13:56:26;2.07;;;1.70;;
17650;SDS011;26663;59.302;18.082;2023-02-01T14:03:14;2.13;;;1.90;;
17650;SDS011;26663;59.302;18.082;2023-02-01T14:09:48;8.97;;;2.83;;
17650;SDS011;26663;59.302;18.082;2023-02-01T14:12:54;3.00;;;2.73;;
17650;SDS011;26663;59.302;18.082;2023-02-01T14:16:11;2.40;;;2.20;;
17650;SDS011;26663;59.302;18.082;2023-02-01T14:19:20;2.97;;;2.43;;
17650;SDS011;26663;59.302;18.082;2023-02-01T14:22:33;2.40;;;2.30;;
17650;SDS011;26663;59.302;18.082;2023-02-01T14:25:38;2.27;;;2.00;;
17650;SDS011;26663;59.302;18.082;2023-02-01T14:32:25;2.03;;;1.90;;
17650;SDS011;26663;59.302;18.082;2023-02-01T14:35:37;2.30;;;2.13;;
17650;SDS011;26663;59.302;18.082;2023-02-01T14:38:47;1.80;;;1.70;;
17650;SDS011;26663;59.302;18.082;2023-02-01T14:41:57;3.50;;;2.33;;
17650;SDS011;26663;59.302;18.082;2023-02-01T14:48:52;3.00;;;2.17;;
17650;SDS011;26663;59.302;18.082;2023-02-01T14:51:58;2.53;;;2.33;;
17650;SDS011;26663;59.302;18.082;2023-02-01T14:55:05;2.30;;;2.10;;
17650;SDS011;26663;59.302;18.082;2023-02-01T14:58:15;2.53;;;1.93;;
17650;SDS011;26663;59.302;18.082;2023-02-01T15:01:25;4.63;;;1.93;;
17650;SDS011;26663;59.302;18.082;2023-02-01T15:04:40;2.10;;;2.00;;
17650;SDS011;26663;59.302;18.082;2023-02-01T15:07:46;4.37;;;2.30;;
17650;SDS011;26663;59.302;18.082;2023-02-01T15:10:51;1.70;;;1.60;;
17650;SDS011;26663;59.302;18.082;2023-02-01T15:13:57;1.93;;;1.93;;
17650;SDS011;26663;59.302;18.082;2023-02-01T15:17:16;2.03;;;1.97;;
17650;SDS011;26663;59.302;18.082;2023-02-01T15:20:26;3.20;;;1.80;;
17650;SDS011;26663;59.302;18.082;2023-02-01T15:23:33;2.50;;;2.07;;
17650;SDS011;26663;59.302;18.082;2023-02-01T15:26:38;4.10;;;2.10;;
17650;SDS011;26663;59.302;18.082;2023-02-01T15:29:44;3.13;;;1.90;;
17650;SDS011;26663;59.302;18.082;2023-02-01T15:32:50;1.80;;;1.80;;
17650;SDS011;26663;59.302;18.082;2023-02-01T15:36:09;6.53;;;4.10;;
17650;SDS011;26663;59.302;18.082;2023-02-01T15:39:21;4.03;;;3.07;;
17650;SDS011;26663;59.302;18.082;2023-02-01T15:42:28;2.37;;;2.27;;
17650;SDS011;26663;59.302;18.082;2023-02-01T15:45:34;3.60;;;2.90;;
17650;SDS011;26663;59.302;18.082;2023-02-01T15:48:41;5.10;;;4.80;;
17650;SDS011;26663;59.302;18.082;2023-02-01T15:51:49;2.87;;;2.30;;
17650;SDS011;26663;59.302;18.082;2023-02-01T15:54:55;2.10;;;2.00;;
17650;SDS011;26663;59.302;18.082;2023-02-01T15:58:04;3.47;;;2.10;;
17650;SDS011;26663;59.302;18.082;2023-02-01T16:01:12;2.00;;;1.90;;
17650;SDS011;26663;59.302;18.082;2023-02-01T16:04:20;2.60;;;1.60;;
17650;SDS011;26663;59.302;18.082;2023-02-01T16:07:31;3.03;;;2.23;;
17650;SDS011;26663;59.302;18.082;2023-02-01T16:10:38;1.83;;;1.37;;
17650;SDS011;26663;59.302;18.082;2023-02-01T16:13:45;2.07;;;1.60;;
17650;SDS011;26663;59.302;18.082;2023-02-01T16:16:50;2.60;;;1.60;;
17650;SDS011;26663;59.302;18.082;2023-02-01T16:19:58;1.70;;;1.60;;
17650;SDS011;26663;59.302;18.082;2023-02-01T16:23:03;1.60;;;1.60;;
17650;SDS011;26663;59.302;18.082;2023-02-01T16:26:09;1.40;;;1.30;;
17650;SDS011;26663;59.302;18.082;2023-02-01T16:29:14;1.50;;;1.40;;
17650;SDS011;26663;59.302;18.082;2023-02-01T16:32:19;1.63;;;1.50;;
17650;SDS011;26663;59.302;18.082;2023-02-01T16:35:27;2.67;;;1.70;;
17650;SDS011;26663;59.302;18.082;2023-02-01T16:38:35;1.53;;;1.40;;
17650;SDS011;26663;59.302;18.082;2023-02-01T16:41:40;2.20;;;1.40;;
17650;SDS011;26663;59.302;18.082;2023-02-01T16:44:46;2.77;;;1.60;;
17650;SDS011;26663;59.302;18.082;2023-02-01T16:47:52;3.53;;;3.23;;
17650;SDS011;26663;59.302;18.082;2023-02-01T16:51:03;2.60;;;1.80;;
17650;SDS011;26663;59.302;18.082;2023-02-01T16:54:11;2.30;;;1.80;;
17650;SDS011;26663;59.302;18.082;2023-02-01T16:57:17;1.90;;;1.80;;
17650;SDS011;26663;59.302;18.082;2023-02-01T17:00:27;1.70;;;1.67;;
17650;SDS011;26663;59.302;18.082;2023-02-01T17:03:33;1.60;;;1.60;;
17650;SDS011;26663;59.302;18.082;2023-02-01T17:06:41;4.47;;;1.93;;
17650;SDS011;26663;59.302;18.082;2023-02-01T17:09:49;1.80;;;1.70;;
17650;SDS011;26663;59.302;18.082;2023-02-01T17:12:55;2.10;;;2.00;;
17650;SDS011;26663;59.302;18.082;2023-02-01T17:16:01;4.63;;;1.83;;
17650;SDS011;26663;59.302;18.082;2023-02-01T17:19:10;2.43;;;1.40;;
17650;SDS011;26663;59.302;18.082;2023-02-01T17:22:19;1.93;;;1.93;;
17650;SDS011;26663;59.302;18.082;2023-02-01T17:25:25;2.23;;;1.77;;
17650;SDS011;26663;59.302;18.082;2023-02-01T17:28:31;2.00;;;1.90;;
17650;SDS011;26663;59.302;18.082;2023-02-01T17:31:38;5.83;;;1.93;;
17650;SDS011;26663;59.302;18.082;2023-02-01T17:34:45;3.87;;;2.20;;
17650;SDS011;26663;59.302;18.082;2023-02-01T17:37:51;4.47;;;2.10;;
17650;SDS011;26663;59.302;18.082;2023-02-01T17:40:57;2.13;;;2.03;;
17650;SDS011;26663;59.302;18.082;2023-02-01T17:44:02;2.80;;;2.40;;
17650;SDS011;26663;59.302;18.082;2023-02-01T17:47:08;2.80;;;2.60;;
17650;SDS011;26663;59.302;18.082;2023-02-01T17:50:13;2.47;;;2.30;;
17650;SDS011;26663;59.302;18.082;2023-02-01T17:53:20;2.17;;;2.07;;
17650;SDS011;26663;59.302;18.082;2023-02-01T17:56:26;2.73;;;2.53;;
17650;SDS011;26663;59.302;18.082;2023-02-01T17:59:32;2.90;;;2.80;;
17650;SDS011;26663;59.302;18.082;2023-02-01T18:02:37;2.77;;;2.67;;
17650;SDS011;26663;59.302;18.082;2023-02-01T18:05:42;3.30;;;2.90;;
17650;SDS011;26663;59.302;18.082;2023-02-01T18:08:54;3.50;;;2.70;;
17650;SDS011;26663;59.302;18.082;2023-02-01T18:12:01;6.73;;;2.80;;
17650;SDS011;26663;59.302;18.082;2023-02-01T18:15:16;2.83;;;2.63;;
17650;SDS011;26663;59.302;18.082;2023-02-01T18:18:23;3.93;;;3.13;;
17650;SDS011;26663;59.302;18.082;2023-02-01T18:21:31;7.23;;;3.47;;
17650;SDS011;26663;59.302;18.082;2023-02-01T18:24:38;4.70;;;3.20;;
17650;SDS011;26663;59.302;18.082;2023-02-01T18:27:44;2.93;;;2.70;;
17650;SDS011;26663;59.302;18.082;2023-02-01T18:30:49;3.87;;;3.57;;
17650;SDS011;26663;59.302;18.082;2023-02-01T18:33:56;4.03;;;2.73;;
17650;SDS011;26663;59.302;18.082;2023-02-01T18:37:01;2.60;;;2.33;;
17650;SDS011;26663;59.302;18.082;2023-02-01T18:40:13;4.07;;;2.80;;
17650;SDS011;26663;59.302;18.082;2023-02-01T18:43:19;2.63;;;2.43;;
17650;SDS011;26663;59.302;18.082;2023-02-01T18:46:24;2.97;;;2.67;;
17650;SDS011;26663;59.302;18.082;2023-02-01T18:49:30;2.70;;;2.60;;
17650;SDS011;26663;59.302;18.082;2023-02-01T18:52:39;2.10;;;2.00;;
17650;SDS011;26663;59.302;18.082;2023-02-01T18:55:46;2.10;;;2.00;;
17650;SDS011;26663;59.302;18.082;2023-02-01T18:58:55;2.20;;;2.10;;
17650;SDS011;26663;59.302;18.082;2023-02-01T19:02:01;2.07;;;2.00;;
17650;SDS011;26663;59.302;18.082;2023-02-01T19:05:09;2.07;;;1.97;;